Time;durP1;ratioP1;P1;durP2;ratioP2;P2;SDS_P1;SDS_P2;PMS_P1;PMS_P2;Temp;Humidity;BMP_temperature;BMP_pressure;BME280_temperature;BME280_humidity;BME280_pressure;Samples;Min_cycle;Max_cycle;Signal;HPM_P1;HPM_P2
2022/05/30 00:00:47;;;;;;;9.63;7.33;;;;;;;;;;5133254;27;20248;-80
2022/05/30 00:03:14;;;;;;;8.77;7.13;;;;;;;;;;5132450;27;20251;-80
2022/05/30 00:05:46;;;;;;;10.13;7.63;;;;;;;;;;5131473;27;20710;-81
2022/05/30 00:08:13;;;;;;;10.00;7.97;;;;;;;;;;5132905;27;20189;-80
2022/05/30 00:10:40;;;;;;;8.57;7.57;;;;;;;;;;5133499;27;20259;-81
2022/05/30 00:13:07;;;;;;;9.13;8.07;;;;;;;;;;5132786;27;20230;-81
2022/05/30 00:15:36;;;;;;;9.70;8.70;;;;;;;;;;5133082;27;20630;-81
2022/05/30 00:18:04;;;;;;;9.03;8.03;;;;;;;;;;5132829;27;20214;-81
2022/05/30 00:20:31;;;;;;;9.83;8.93;;;;;;;;;;5133296;27;20255;-80
2022/05/30 00:22:58;;;;;;;10.07;7.93;;;;;;;;;;5132482;27;20625;-80
2022/05/30 00:25:25;;;;;;;8.60;7.87;;;;;;;;;;5132933;27;20232;-80
2022/05/30 00:27:52;;;;;;;11.83;8.23;;;;;;;;;;5133021;27;20220;-80
2022/05/30 00:30:19;;;;;;;9.77;8.20;;;;;;;;;;5133056;27;20254;-80
2022/05/30 00:32:48;;;;;;;8.40;7.60;;;;;;;;;;5121041;28;20210;-79
2022/05/30 00:35:15;;;;;;;11.87;7.47;;;;;;;;;;5112199;28;20200;-80
2022/05/30 00:37:42;;;;;;;8.20;7.30;;;;;;;;;;5112047;28;20694;-80
2022/05/30 00:40:10;;;;;;;11.10;8.27;;;;;;;;;;5112198;28;20215;-80
2022/05/30 00:42:37;;;;;;;9.83;8.83;;;;;;;;;;5114413;28;20232;-80
2022/05/30 00:45:05;;;;;;;9.17;8.03;;;;;;;;;;5116593;27;20191;-79
2022/05/30 00:47:32;;;;;;;8.27;7.47;;;;;;;;;;5116340;28;20198;-80
2022/05/30 00:50:00;;;;;;;8.43;7.63;;;;;;;;;;5116657;27;20195;-80
2022/05/30 00:52:29;;;;;;;9.03;7.23;;;;;;;;;;5115974;28;20628;-80
2022/05/30 00:55:00;;;;;;;8.00;7.20;;;;;;;;;;5116274;28;20198;-80
2022/05/30 00:57:29;;;;;;;8.87;7.30;;;;;;;;;;5116177;28;20224;-79
2022/05/30 00:59:57;;;;;;;9.93;7.53;;;;;;;;;;5116690;28;20321;-80
2022/05/30 01:02:28;;;;;;;7.37;6.40;;;;;;;;;;5115770;28;20194;-79
2022/05/30 01:07:42;;;;;;;8.07;6.33;;;;;;;;;;5116489;28;20609;-80
2022/05/30 01:10:11;;;;;;;6.87;6.27;;;;;;;;;;5116268;28;20282;-80
2022/05/30 01:12:41;;;;;;;9.27;6.70;;;;;;;;;;5115755;28;20242;-80
2022/05/30 01:15:10;;;;;;;7.33;6.67;;;;;;;;;;5115645;28;20195;-79
2022/05/30 01:17:46;;;;;;;9.40;7.20;;;;;;;;;;5115843;28;20630;-80
2022/05/30 01:20:20;;;;;;;7.63;6.70;;;;;;;;;;5115917;28;20201;-79
2022/05/30 01:23:07;;;;;;;7.97;6.40;;;;;;;;;;5115977;27;20608;-79
2022/05/30 01:26:06;;;;;;;8.27;7.47;;;;;;;;;;5115874;28;20597;-80
2022/05/30 01:28:41;;;;;;;8.87;7.57;;;;;;;;;;5108496;28;20232;-80
2022/05/30 01:31:08;;;;;;;8.17;7.43;;;;;;;;;;5116019;28;20187;-79
2022/05/30 01:33:35;;;;;;;9.03;7.93;;;;;;;;;;5115683;28;20248;-79
2022/05/30 01:36:02;;;;;;;8.73;7.83;;;;;;;;;;5115539;28;20198;-79
2022/05/30 01:38:29;;;;;;;9.00;8.10;;;;;;;;;;5115464;28;20221;-79
2022/05/30 01:40:57;;;;;;;26.77;8.80;;;;;;;;;;5115714;28;20195;-80
2022/05/30 01:43:24;;;;;;;9.20;8.33;;;;;;;;;;5115001;28;20698;-79
2022/05/30 01:45:52;;;;;;;8.20;7.53;;;;;;;;;;5115899;28;20195;-80
2022/05/30 01:48:19;;;;;;;10.20;7.97;;;;;;;;;;5115399;28;20196;-79
2022/05/30 01:50:47;;;;;;;8.87;8.13;;;;;;;;;;5115314;28;20275;-80
2022/05/30 01:53:14;;;;;;;8.47;7.67;;;;;;;;;;5113947;28;20226;-79
2022/05/30 01:55:41;;;;;;;9.70;8.70;;;;;;;;;;5115449;28;20248;-79
2022/05/30 01:58:08;;;;;;;8.70;7.87;;;;;;;;;;5115185;27;20222;-79
2022/05/30 02:00:36;;;;;;;8.63;7.80;;;;;;;;;;5115164;28;20235;-80
2022/05/30 02:03:05;;;;;;;8.87;7.17;;;;;;;;;;5115024;28;20202;-79
2022/05/30 02:05:33;;;;;;;9.03;7.07;;;;;;;;;;5115554;28;20319;-79
2022/05/30 02:08:01;;;;;;;8.23;7.33;;;;;;;;;;5115020;28;20198;-79
2022/05/30 02:10:29;;;;;;;8.67;7.60;;;;;;;;;;5115283;28;20285;-79
2022/05/30 02:12:56;;;;;;;10.83;7.80;;;;;;;;;;5114640;28;20234;-79
2022/05/30 02:15:23;;;;;;;8.97;8.07;;;;;;;;;;5114824;28;20252;-79
2022/05/30 02:17:49;;;;;;;8.63;7.83;;;;;;;;;;5114511;28;20199;-79
2022/05/30 02:20:18;;;;;;;10.97;8.13;;;;;;;;;;5114552;28;20270;-80
2022/05/30 02:22:45;;;;;;;8.97;8.17;;;;;;;;;;5114726;28;20207;-79
2022/05/30 02:25:13;;;;;;;11.40;8.10;;;;;;;;;;5114457;28;20251;-80
2022/05/30 02:27:41;;;;;;;8.30;7.50;;;;;;;;;;5114877;28;20194;-79
2022/05/30 02:30:10;;;;;;;8.13;7.40;;;;;;;;;;5114422;28;20290;-79
2022/05/30 02:32:37;;;;;;;9.17;8.20;;;;;;;;;;5114494;28;20191;-79
2022/05/30 02:37:50;;;;;;;8.20;7.23;;;;;;;;;;5114263;28;20186;-79
2022/05/30 02:40:17;;;;;;;8.87;8.13;;;;;;;;;;5114579;28;20347;-79
2022/05/30 02:42:44;;;;;;;8.60;7.80;;;;;;;;;;5114146;28;20202;-79
2022/05/30 02:45:12;;;;;;;9.27;8.37;;;;;;;;;;5114516;28;20193;-79
2022/05/30 02:47:39;;;;;;;8.80;7.90;;;;;;;;;;5113934;28;20205;-79
2022/05/30 02:50:07;;;;;;;9.40;8.50;;;;;;;;;;5114048;28;20250;-79
2022/05/30 02:52:34;;;;;;;8.90;8.00;;;;;;;;;;5114244;28;20252;-79
2022/05/30 02:55:02;;;;;;;8.60;7.70;;;;;;;;;;5113757;28;20203;-79
2022/05/30 02:57:29;;;;;;;8.63;8.03;;;;;;;;;;5113775;28;20203;-79
2022/05/30 02:59:56;;;;;;;9.83;8.33;;;;;;;;;;5114153;28;20221;-80
2022/05/30 03:02:23;;;;;;;8.93;7.47;;;;;;;;;;5113535;28;20218;-79
2022/05/30 03:04:50;;;;;;;8.77;7.97;;;;;;;;;;5113183;28;20243;-79
2022/05/30 03:07:17;;;;;;;8.37;7.57;;;;;;;;;;5114510;28;20204;-79
2022/05/30 03:09:45;;;;;;;9.00;8.07;;;;;;;;;;5111646;28;20671;-79
2022/05/30 03:12:13;;;;;;;8.80;8.00;;;;;;;;;;5111991;28;20303;-79
2022/05/30 03:14:40;;;;;;;7.73;7.03;;;;;;;;;;5109489;28;20719;-79
2022/05/30 03:17:07;;;;;;;8.20;7.33;;;;;;;;;;5112407;28;20653;-79
2022/05/30 03:19:34;;;;;;;9.03;7.70;;;;;;;;;;5112181;28;20216;-80
2022/05/30 03:22:01;;;;;;;8.53;7.83;;;;;;;;;;5109248;28;20669;-79
2022/05/30 03:24:28;;;;;;;9.10;6.90;;;;;;;;;;5109629;28;20659;-79
2022/05/30 03:26:55;;;;;;;12.50;8.30;;;;;;;;;;5111055;28;20656;-79
2022/05/30 03:29:23;;;;;;;8.20;7.37;;;;;;;;;;5112859;28;20635;-79
2022/05/30 03:31:50;;;;;;;8.00;7.30;;;;;;;;;;5112747;28;20262;-79
2022/05/30 03:34:18;;;;;;;9.93;7.97;;;;;;;;;;5113038;27;20272;-79
2022/05/30 03:36:45;;;;;;;7.77;7.03;;;;;;;;;;5113507;28;20196;-79
2022/05/30 03:39:13;;;;;;;7.73;6.87;;;;;;;;;;5112816;28;20221;-80
2022/05/30 03:41:40;;;;;;;7.10;6.60;;;;;;;;;;5112875;28;20612;-79
2022/05/30 03:44:07;;;;;;;8.40;7.63;;;;;;;;;;5112711;28;20198;-79
2022/05/30 03:46:35;;;;;;;8.53;7.90;;;;;;;;;;5125247;27;20205;-79
2022/05/30 03:49:03;;;;;;;8.33;7.53;;;;;;;;;;5133615;27;20197;-79
2022/05/30 03:51:30;;;;;;;8.60;7.73;;;;;;;;;;5133465;27;20204;-80
2022/05/30 03:53:58;;;;;;;8.60;7.80;;;;;;;;;;5133859;27;20254;-80
2022/05/30 03:56:25;;;;;;;8.63;7.90;;;;;;;;;;5123829;27;20253;-80
2022/05/30 03:58:52;;;;;;;9.07;7.57;;;;;;;;;;5112576;28;20221;-81
2022/05/30 04:01:19;;;;;;;13.80;7.57;;;;;;;;;;5112268;28;20241;-79
2022/05/30 04:03:48;;;;;;;11.00;8.13;;;;;;;;;;5112448;28;20246;-80
2022/05/30 04:06:15;;;;;;;8.50;7.43;;;;;;;;;;5111693;27;20201;-80
2022/05/30 04:08:42;;;;;;;9.23;8.33;;;;;;;;;;5112309;28;20266;-79
2022/05/30 04:11:09;;;;;;;8.67;7.77;;;;;;;;;;5112152;28;20254;-80
2022/05/30 04:13:36;;;;;;;8.47;7.77;;;;;;;;;;5112155;28;20665;-80
2022/05/30 04:16:10;;;;;;;7.60;7.00;;;;;;;;;;5111970;28;20255;-80
2022/05/30 04:18:37;;;;;;;9.50;8.40;;;;;;;;;;5112002;28;20277;-80
2022/05/30 04:21:06;;;;;;;8.03;7.33;;;;;;;;;;5112821;28;20549;-79
2022/05/30 04:23:33;;;;;;;9.73;8.00;;;;;;;;;;5112282;28;20239;-80
2022/05/30 04:26:01;;;;;;;8.60;7.00;;;;;;;;;;5112359;28;20241;-80
2022/05/30 04:28:28;;;;;;;7.43;6.80;;;;;;;;;;5112020;28;20656;-80
2022/05/30 04:30:55;;;;;;;7.77;7.10;;;;;;;;;;5112834;28;20624;-79
2022/05/30 04:33:22;;;;;;;8.10;7.40;;;;;;;;;;5112060;28;20196;-80
2022/05/30 04:35:49;;;;;;;7.63;6.93;;;;;;;;;;5112567;28;20253;-80
2022/05/30 04:38:17;;;;;;;8.17;7.10;;;;;;;;;;5112397;28;20226;-79
2022/05/30 04:40:45;;;;;;;8.33;7.07;;;;;;;;;;5112190;28;20278;-79
2022/05/30 04:43:12;;;;;;;8.93;7.33;;;;;;;;;;5112085;28;20218;-79
2022/05/30 04:45:39;;;;;;;10.57;6.57;;;;;;;;;;5111767;28;20202;-79
2022/05/30 04:48:07;;;;;;;8.70;7.80;;;;;;;;;;5111378;28;20205;-80
2022/05/30 04:50:34;;;;;;;8.30;7.27;;;;;;;;;;5111993;28;20190;-81
2022/05/30 04:53:01;;;;;;;11.07;7.80;;;;;;;;;;5111350;28;20696;-81
2022/05/30 04:55:29;;;;;;;8.23;7.33;;;;;;;;;;5112022;28;20681;-81
2022/05/30 04:57:56;;;;;;;9.07;7.43;;;;;;;;;;5111656;28;20194;-81
2022/05/30 05:00:24;;;;;;;8.67;7.80;;;;;;;;;;5112000;28;20226;-81
2022/05/30 05:02:52;;;;;;;8.53;7.10;;;;;;;;;;5111713;28;20199;-81
2022/05/30 05:05:19;;;;;;;8.13;7.33;;;;;;;;;;5111878;28;20203;-81
2022/05/30 05:07:51;;;;;;;7.93;7.23;;;;;;;;;;5110997;28;20224;-81
2022/05/30 05:10:33;;;;;;;12.43;7.63;;;;;;;;;;5112397;28;20618;-81
2022/05/30 05:13:01;;;;;;;8.13;7.33;;;;;;;;;;5111538;28;20266;-81
2022/05/30 05:15:28;;;;;;;15.63;7.87;;;;;;;;;;5112223;28;20199;-81
2022/05/30 05:17:55;;;;;;;7.63;6.73;;;;;;;;;;5112072;28;20253;-81
2022/05/30 05:20:23;;;;;;;7.97;7.00;;;;;;;;;;5111849;28;20230;-81
2022/05/30 05:22:50;;;;;;;8.70;7.87;;;;;;;;;;5111561;28;20246;-81
2022/05/30 05:25:18;;;;;;;8.83;7.00;;;;;;;;;;5111939;28;20196;-81
2022/05/30 05:27:47;;;;;;;8.07;7.27;;;;;;;;;;5112638;28;20282;-80
2022/05/30 05:30:14;;;;;;;9.13;7.70;;;;;;;;;;5115608;27;20260;-81
2022/05/30 05:32:41;;;;;;;10.43;7.23;;;;;;;;;;5115712;28;20638;-81
2022/05/30 05:35:09;;;;;;;10.90;7.80;;;;;;;;;;5115728;28;20252;-81
2022/05/30 05:37:36;;;;;;;9.30;8.37;;;;;;;;;;5115434;28;20749;-81
2022/05/30 05:40:04;;;;;;;9.17;7.80;;;;;;;;;;5115758;27;20236;-81
2022/05/30 05:42:31;;;;;;;8.03;5.63;;;;;;;;;;5115587;28;20256;-81
2022/05/30 05:44:59;;;;;;;7.73;5.40;;;;;;;;;;5115813;27;20252;-81
2022/05/30 05:47:26;;;;;;;7.23;4.93;;;;;;;;;;5115006;28;20195;-81
2022/05/30 05:49:53;;;;;;;6.60;5.00;;;;;;;;;;5115685;28;20196;-81
2022/05/30 05:52:20;;;;;;;7.10;3.73;;;;;;;;;;5115461;28;20195;-81
2022/05/30 05:54:47;;;;;;;9.03;5.43;;;;;;;;;;5115225;28;20626;-81
2022/05/30 05:57:14;;;;;;;4.77;4.33;;;;;;;;;;5115432;28;20195;-81
2022/05/30 05:59:41;;;;;;;9.13;4.77;;;;;;;;;;5114897;28;20215;-80
2022/05/30 06:02:10;;;;;;;5.60;4.27;;;;;;;;;;5115369;28;20192;-80
2022/05/30 06:04:38;;;;;;;6.40;4.57;;;;;;;;;;5115005;28;20652;-81
2022/05/30 06:07:06;;;;;;;8.37;4.57;;;;;;;;;;5114682;28;20195;-81
2022/05/30 06:09:33;;;;;;;4.23;3.87;;;;;;;;;;5114809;28;20191;-81
2022/05/30 06:12:00;;;;;;;5.47;4.30;;;;;;;;;;5114998;27;20292;-81
2022/05/30 06:14:27;;;;;;;6.40;4.50;;;;;;;;;;5114774;28;20188;-81
2022/05/30 06:16:54;;;;;;;10.17;3.93;;;;;;;;;;5114783;28;20240;-81
2022/05/30 06:19:23;;;;;;;5.60;3.90;;;;;;;;;;5114202;28;20620;-82
2022/05/30 06:21:50;;;;;;;4.17;3.77;;;;;;;;;;5115057;28;20578;-81
2022/05/30 06:24:17;;;;;;;4.33;3.80;;;;;;;;;;5114807;28;20203;-81
2022/05/30 06:26:45;;;;;;;5.60;3.97;;;;;;;;;;5114698;28;20227;-81
2022/05/30 06:29:12;;;;;;;7.80;4.10;;;;;;;;;;5114166;28;20188;-81
2022/05/30 06:31:40;;;;;;;5.70;4.30;;;;;;;;;;5114782;28;20195;-81
2022/05/30 06:34:07;;;;;;;6.07;4.30;;;;;;;;;;5114318;28;20198;-81
2022/05/30 06:36:36;;;;;;;5.80;4.00;;;;;;;;;;5114748;28;20260;-81
2022/05/30 06:39:03;;;;;;;6.17;3.83;;;;;;;;;;5113706;28;20252;-81
2022/05/30 06:41:32;;;;;;;5.20;3.50;;;;;;;;;;5114449;28;20223;-81
2022/05/30 06:44:02;;;;;;;5.40;3.50;;;;;;;;;;5114125;28;20199;-81
2022/05/30 06:46:29;;;;;;;5.60;3.77;;;;;;;;;;5114520;28;20191;-81
2022/05/30 06:48:56;;;;;;;5.13;3.80;;;;;;;;;;5114008;28;20687;-81
2022/05/30 06:51:26;;;;;;;4.27;3.80;;;;;;;;;;5114042;28;20202;-81
2022/05/30 06:53:54;;;;;;;4.00;3.70;;;;;;;;;;5113921;28;20199;-82
2022/05/30 06:56:24;;;;;;;4.53;3.47;;;;;;;;;;5114379;28;20659;-82
2022/05/30 06:58:52;;;;;;;3.67;3.37;;;;;;;;;;5113799;28;20236;-82
2022/05/30 07:01:19;;;;;;;4.53;3.23;;;;;;;;;;5113938;28;20230;-82
2022/05/30 07:03:46;;;;;;;3.57;3.00;;;;;;;;;;5113760;28;20199;-82
2022/05/30 07:06:17;;;;;;;3.30;3.07;;;;;;;;;;5114129;28;20671;-82
2022/05/30 07:08:46;;;;;;;3.47;3.17;;;;;;;;;;5113942;28;20182;-82
2022/05/30 07:11:14;;;;;;;3.50;3.00;;;;;;;;;;5113689;28;20663;-82
2022/05/30 07:13:42;;;;;;;4.27;2.90;;;;;;;;;;5113205;28;20602;-82
2022/05/30 07:16:09;;;;;;;3.50;3.07;;;;;;;;;;5113765;28;20319;-82
2022/05/30 07:18:37;;;;;;;3.47;2.37;;;;;;;;;;5113756;28;20573;-82
2022/05/30 07:21:07;;;;;;;5.00;2.80;;;;;;;;;;5113475;28;20315;-81
2022/05/30 07:23:35;;;;;;;2.80;2.60;;;;;;;;;;5113083;28;20231;-82
2022/05/30 07:26:04;;;;;;;2.40;2.20;;;;;;;;;;5113819;28;20195;-82
2022/05/30 07:28:33;;;;;;;4.33;2.40;;;;;;;;;;5113560;28;20249;-82
2022/05/30 07:31:04;;;;;;;5.47;2.60;;;;;;;;;;5113627;28;20200;-82
2022/05/30 07:33:31;;;;;;;5.53;2.50;;;;;;;;;;5112959;28;20282;-82
2022/05/30 07:35:59;;;;;;;3.43;2.87;;;;;;;;;;5113549;28;20716;-82
2022/05/30 07:38:26;;;;;;;4.47;2.53;;;;;;;;;;5113406;28;20200;-82
2022/05/30 07:40:53;;;;;;;2.77;2.40;;;;;;;;;;5113361;28;20255;-82
2022/05/30 07:43:20;;;;;;;3.27;2.30;;;;;;;;;;5113016;27;20218;-82
2022/05/30 07:45:49;;;;;;;6.53;2.90;;;;;;;;;;5113479;27;20196;-82
2022/05/30 07:48:16;;;;;;;4.33;2.60;;;;;;;;;;5112856;28;20206;-82
2022/05/30 07:50:43;;;;;;;2.83;2.40;;;;;;;;;;5112456;28;20199;-81
2022/05/30 07:53:10;;;;;;;3.40;3.10;;;;;;;;;;5112261;28;20249;-82
2022/05/30 07:55:39;;;;;;;3.00;2.30;;;;;;;;;;5112932;28;20237;-82
2022/05/30 07:58:06;;;;;;;3.83;2.67;;;;;;;;;;5112722;28;20668;-82
2022/05/30 08:00:35;;;;;;;3.73;2.13;;;;;;;;;;5112768;28;20280;-82
2022/05/30 08:03:04;;;;;;;6.33;2.63;;;;;;;;;;5112612;28;20199;-82
2022/05/30 08:05:32;;;;;;;5.63;2.60;;;;;;;;;;5112694;28;20210;-82
2022/05/30 08:07:59;;;;;;;3.97;1.97;;;;;;;;;;5112569;28;20260;-82
2022/05/30 08:10:26;;;;;;;3.30;2.60;;;;;;;;;;5113025;28;20192;-82
2022/05/30 08:12:53;;;;;;;6.77;3.03;;;;;;;;;;5112241;27;20288;-82
2022/05/30 08:15:20;;;;;;;4.87;2.40;;;;;;;;;;5112983;28;20591;-82
2022/05/30 08:17:47;;;;;;;3.23;2.23;;;;;;;;;;5112798;28;20202;-82
2022/05/30 08:20:17;;;;;;;2.67;1.93;;;;;;;;;;5112781;28;20222;-82
2022/05/30 08:22:44;;;;;;;4.07;2.33;;;;;;;;;;5112351;28;20195;-81
2022/05/30 08:25:15;;;;;;;3.50;2.00;;;;;;;;;;5112730;28;20203;-81
2022/05/30 08:27:42;;;;;;;5.67;2.53;;;;;;;;;;5112427;28;20194;-81
2022/05/30 08:30:10;;;;;;;2.43;2.03;;;;;;;;;;5112442;28;20290;-82
2022/05/30 08:32:38;;;;;;;3.00;1.97;;;;;;;;;;5111964;28;20192;-82
2022/05/30 08:35:07;;;;;;;3.90;2.50;;;;;;;;;;5112403;28;20195;-82
2022/05/30 08:37:37;;;;;;;7.33;2.43;;;;;;;;;;5112498;28;20249;-81
2022/05/30 08:42:51;;;;;;;3.63;2.50;;;;;;;;;;5112210;28;20296;-82
2022/05/30 08:45:23;;;;;;;2.30;2.10;;;;;;;;;;5112579;28;20721;-82
2022/05/30 08:47:52;;;;;;;2.47;2.27;;;;;;;;;;5112467;28;20218;-82
2022/05/30 08:50:36;;;;;;;2.57;2.00;;;;;;;;;;5112504;28;20191;-81
2022/05/30 08:53:41;;;;;;;4.47;2.80;;;;;;;;;;5112085;28;20188;-81
2022/05/30 08:56:16;;;;;;;5.03;2.10;;;;;;;;;;5109470;27;20707;-81
2022/05/30 08:58:53;;;;;;;3.97;1.93;;;;;;;;;;5112096;28;20240;-81
2022/05/30 09:01:23;;;;;;;3.00;2.70;;;;;;;;;;5112478;28;20273;-82
2022/05/30 09:06:50;;;;;;;2.73;2.47;;;;;;;;;;5151765;27;20546;-82
2022/05/30 09:09:22;;;;;;;4.50;2.90;;;;;;;;;;5150857;27;20186;-82
2022/05/30 09:11:54;;;;;;;4.27;2.67;;;;;;;;;;5150896;27;20578;-82
2022/05/30 09:14:35;;;;;;;6.63;2.60;;;;;;;;;;5151096;27;20606;-82
2022/05/30 09:17:04;;;;;;;3.70;2.53;;;;;;;;;;5150642;27;20669;-82
2022/05/30 09:19:31;;;;;;;4.47;2.67;;;;;;;;;;5150972;27;20190;-79
2022/05/30 09:22:03;;;;;;;4.43;2.53;;;;;;;;;;5150704;27;20202;-80
2022/05/30 09:24:32;;;;;;;2.57;2.37;;;;;;;;;;5150837;27;20269;-80
2022/05/30 09:27:01;;;;;;;3.80;2.30;;;;;;;;;;5150638;27;20202;-82
2022/05/30 09:29:30;;;;;;;4.40;2.37;;;;;;;;;;5150213;27;20205;-80
2022/05/30 09:32:08;;;;;;;3.50;3.20;;;;;;;;;;5150912;27;20631;-80
2022/05/30 09:34:39;;;;;;;2.83;2.63;;;;;;;;;;5150520;27;20239;-81
2022/05/30 09:37:08;;;;;;;5.63;2.80;;;;;;;;;;5150844;27;20186;-81
2022/05/30 09:39:46;;;;;;;3.97;3.03;;;;;;;;;;5150121;27;20202;-81
2022/05/30 09:42:25;;;;;;;3.90;3.33;;;;;;;;;;5150668;27;20251;-81
2022/05/30 09:44:55;;;;;;;5.87;3.67;;;;;;;;;;5150287;27;20202;-81
2022/05/30 09:47:23;;;;;;;3.23;3.00;;;;;;;;;;5150479;27;20573;-81
2022/05/30 09:49:51;;;;;;;6.47;4.17;;;;;;;;;;5149911;27;20246;-81
2022/05/30 09:52:28;;;;;;;3.10;2.80;;;;;;;;;;5150096;27;20194;-80
2022/05/30 09:54:55;;;;;;;3.30;2.97;;;;;;;;;;5150406;27;20719;-81
2022/05/30 09:57:25;;;;;;;6.27;3.03;;;;;;;;;;5150853;27;20198;-81
2022/05/30 09:59:53;;;;;;;5.77;3.30;;;;;;;;;;5149704;27;20281;-81
2022/05/30 10:02:23;;;;;;;4.43;3.43;;;;;;;;;;5149897;27;20186;-81
2022/05/30 10:04:56;;;;;;;7.00;3.17;;;;;;;;;;5149808;27;20230;-81
2022/05/30 10:07:25;;;;;;;3.90;2.80;;;;;;;;;;5149860;27;20569;-80
2022/05/30 10:09:55;;;;;;;4.00;2.70;;;;;;;;;;5150122;27;20198;-81
2022/05/30 10:12:34;;;;;;;3.53;2.23;;;;;;;;;;5149954;27;20251;-81
2022/05/30 10:15:02;;;;;;;4.43;3.20;;;;;;;;;;5150151;27;20639;-81
2022/05/30 10:17:31;;;;;;;4.90;2.37;;;;;;;;;;5139112;27;20228;-81
2022/05/30 10:19:59;;;;;;;2.77;2.57;;;;;;;;;;5136173;27;20195;-81
2022/05/30 10:28:30;;;;;;;6.20;3.37;;;;;;;;;;5135425;27;20174;-81
2022/05/30 10:31:07;;;;;;;4.00;3.20;;;;;;;;;;5136035;27;20187;-80
2022/05/30 10:33:58;;;;;;;4.83;2.10;;;;;;;;;;5135322;27;20674;-80
2022/05/30 10:36:33;;;;;;;4.83;2.80;;;;;;;;;;5135598;27;20179;-81
2022/05/30 10:39:11;;;;;;;5.63;2.70;;;;;;;;;;5135400;27;20190;-81
2022/05/30 10:41:44;;;;;;;2.17;2.07;;;;;;;;;;5135422;27;20217;-80
2022/05/30 10:44:15;;;;;;;2.53;2.33;;;;;;;;;;5135331;27;20183;-80
2022/05/30 10:46:48;;;;;;;3.87;2.57;;;;;;;;;;5135571;27;20654;-80
2022/05/30 10:49:16;;;;;;;4.93;3.13;;;;;;;;;;5135290;27;20178;-80
2022/05/30 10:51:52;;;;;;;4.90;2.70;;;;;;;;;;5135580;27;20619;-81
2022/05/30 10:54:25;;;;;;;5.77;2.53;;;;;;;;;;5135344;27;20179;-80
2022/05/30 10:56:54;;;;;;;4.30;3.05;;;;;;;;;;5135012;27;20187;-80
2022/05/30 10:59:26;;;;;;;8.10;3.03;;;;;;;;;;5135193;27;20195;-80
2022/05/30 11:01:56;;;;;;;2.88;2.67;;;;;;;;;;5135457;27;20247;-80
2022/05/30 11:04:31;;;;;;;6.82;3.13;;;;;;;;;;5134921;27;20252;-81
2022/05/30 11:07:03;;;;;;;3.85;2.83;;;;;;;;;;5135040;27;20284;-81
2022/05/30 11:09:35;;;;;;;3.88;2.83;;;;;;;;;;5135066;27;20187;-81
2022/05/30 11:12:03;;;;;;;5.03;2.95;;;;;;;;;;5134954;27;20244;-80
2022/05/30 11:14:37;;;;;;;6.15;2.90;;;;;;;;;;5134639;27;20663;-81
2022/05/30 11:17:10;;;;;;;4.35;3.22;;;;;;;;;;5134942;27;20183;-81
2022/05/30 11:19:51;;;;;;;3.87;2.60;;;;;;;;;;5134900;27;20554;-81
2022/05/30 11:22:21;;;;;;;4.18;2.85;;;;;;;;;;5134928;27;20262;-81
2022/05/30 11:24:52;;;;;;;5.30;2.65;;;;;;;;;;5134873;27;20259;-81
2022/05/30 11:27:32;;;;;;;6.57;3.47;;;;;;;;;;5134323;27;20255;-81
2022/05/30 11:30:21;;;;;;;3.50;2.55;;;;;;;;;;5133696;27;20658;-81
2022/05/30 11:33:12;;;;;;;2.80;2.60;;;;;;;;;;5134598;27;20236;-81
2022/05/30 11:35:44;;;;;;;9.10;2.78;;;;;;;;;;5134754;27;20178;-80
2022/05/30 11:38:35;;;;;;;3.25;2.65;;;;;;;;;;5134147;27;20179;-81
2022/05/30 11:41:11;;;;;;;9.00;2.70;;;;;;;;;;5134341;27;20639;-81
2022/05/30 11:44:01;;;;;;;4.57;2.90;;;;;;;;;;5134160;27;20187;-81
2022/05/30 11:46:36;;;;;;;2.83;2.60;;;;;;;;;;5134163;27;20698;-81
2022/05/30 11:49:07;;;;;;;4.87;3.13;;;;;;;;;;5133933;27;20281;-81
2022/05/30 11:51:46;;;;;;;4.90;4.00;;;;;;;;;;5133772;27;20187;-81
2022/05/30 11:54:38;;;;;;;3.77;3.00;;;;;;;;;;5133915;27;20183;-81
2022/05/30 11:57:14;;;;;;;6.57;3.23;;;;;;;;;;5133930;27;20187;-81
2022/05/30 12:00:08;;;;;;;4.20;3.27;;;;;;;;;;5133615;27;20204;-81
2022/05/30 12:03:12;;;;;;;5.40;3.10;;;;;;;;;;5130859;27;20194;-81
2022/05/30 12:06:09;;;;;;;5.30;3.57;;;;;;;;;;5133466;27;20230;-81
2022/05/30 12:09:23;;;;;;;5.03;2.83;;;;;;;;;;5104318;27;20194;-81
2022/05/30 12:12:04;;;;;;;5.00;2.72;;;;;;;;;;5092375;27;20198;-80
2022/05/30 12:15:04;;;;;;;8.40;3.43;;;;;;;;;;5133786;27;20239;-81
2022/05/30 12:23:51;;;;;;;3.23;2.53;;;;;;;;;;5133407;27;20281;-81
2022/05/30 12:26:18;;;;;;;3.13;2.83;;;;;;;;;;5133377;27;20696;-81
2022/05/30 12:29:00;;;;;;;6.57;2.70;;;;;;;;;;5132892;27;20289;-81
2022/05/30 12:31:41;;;;;;;3.03;2.83;;;;;;;;;;5131985;27;20194;-81
2022/05/30 12:34:09;;;;;;;7.30;2.80;;;;;;;;;;5133400;27;20199;-81
2022/05/30 12:36:46;;;;;;;3.08;2.20;;;;;;;;;;5132999;27;20233;-81
2022/05/30 12:39:33;;;;;;;4.80;2.43;;;;;;;;;;5132819;27;20182;-81
2022/05/30 12:42:03;;;;;;;3.33;2.80;;;;;;;;;;5133569;27;20259;-81
2022/05/30 12:44:50;;;;;;;6.47;2.90;;;;;;;;;;5133029;27;20701;-80
2022/05/30 12:47:26;;;;;;;3.63;3.22;;;;;;;;;;5132713;27;20271;-80
2022/05/30 12:50:25;;;;;;;5.67;3.00;;;;;;;;;;5133465;27;20179;-81
2022/05/30 12:52:56;;;;;;;3.90;3.50;;;;;;;;;;5133110;27;20201;-80
2022/05/30 12:55:37;;;;;;;4.10;3.28;;;;;;;;;;5133068;27;20191;-81
2022/05/30 12:58:05;;;;;;;4.50;2.53;;;;;;;;;;5132500;27;20178;-80
2022/05/30 13:00:55;;;;;;;3.10;2.80;;;;;;;;;;5133245;27;20256;-81
2022/05/30 13:03:35;;;;;;;5.22;2.97;;;;;;;;;;5132742;27;20193;-81
2022/05/30 13:06:10;;;;;;;3.45;2.80;;;;;;;;;;5132544;28;20265;-81
2022/05/30 13:09:08;;;;;;;6.40;2.50;;;;;;;;;;5132761;27;20547;-80
2022/05/30 13:12:08;;;;;;;4.05;2.88;;;;;;;;;;5132945;27;20179;-80
2022/05/30 13:15:06;;;;;;;8.27;2.63;;;;;;;;;;5126210;27;20255;-80
2022/05/30 13:17:41;;;;;;;3.28;2.92;;;;;;;;;;5132689;27;20208;-80
2022/05/30 13:20:12;;;;;;;3.50;3.13;;;;;;;;;;5133091;27;20231;-80
2022/05/30 13:22:42;;;;;;;3.53;2.72;;;;;;;;;;5132679;27;20195;-80
2022/05/30 13:25:12;;;;;;;3.15;2.65;;;;;;;;;;5132793;27;20247;-81
2022/05/30 13:27:39;;;;;;;4.18;3.13;;;;;;;;;;5132857;27;20210;-80
2022/05/30 13:30:09;;;;;;;3.30;2.73;;;;;;;;;;5132998;27;20190;-81
2022/05/30 13:32:36;;;;;;;7.63;3.20;;;;;;;;;;5132212;27;20224;-81
2022/05/30 13:35:07;;;;;;;3.17;2.97;;;;;;;;;;5132650;27;20626;-81
2022/05/30 13:37:41;;;;;;;3.57;2.83;;;;;;;;;;5132496;27;20208;-81
2022/05/30 13:40:11;;;;;;;3.13;2.73;;;;;;;;;;5132680;27;20187;-81
2022/05/30 13:42:49;;;;;;;3.33;3.03;;;;;;;;;;5132535;27;20247;-80
2022/05/30 13:45:18;;;;;;;4.13;3.07;;;;;;;;;;5132576;27;20178;-81
2022/05/30 13:47:45;;;;;;;3.63;2.90;;;;;;;;;;5132575;27;20227;-81
2022/05/30 13:50:12;;;;;;;4.77;3.70;;;;;;;;;;5132513;28;20226;-81
2022/05/30 13:52:41;;;;;;;4.77;3.30;;;;;;;;;;5134922;27;20202;-80
2022/05/30 13:55:11;;;;;;;5.93;3.80;;;;;;;;;;5136677;27;20294;-80
2022/05/30 13:57:38;;;;;;;3.50;2.97;;;;;;;;;;5136159;27;20230;-80
2022/05/30 14:00:09;;;;;;;4.57;4.07;;;;;;;;;;5136585;27;20195;-81
2022/05/30 14:02:41;;;;;;;3.40;3.10;;;;;;;;;;5136202;27;20182;-80
2022/05/30 14:05:11;;;;;;;5.05;3.17;;;;;;;;;;5136219;27;20263;-81
2022/05/30 14:07:44;;;;;;;3.25;2.90;;;;;;;;;;5135673;27;20229;-80
2022/05/30 14:10:14;;;;;;;5.28;3.05;;;;;;;;;;5136392;27;20633;-81
2022/05/30 14:12:44;;;;;;;3.07;2.77;;;;;;;;;;5136050;27;20745;-81
2022/05/30 14:15:13;;;;;;;3.43;3.13;;;;;;;;;;5136343;27;20195;-81
2022/05/30 14:17:41;;;;;;;5.77;2.77;;;;;;;;;;5135502;27;20187;-80
2022/05/30 14:20:12;;;;;;;3.53;2.93;;;;;;;;;;5135901;27;20611;-81
2022/05/30 14:22:40;;;;;;;4.80;2.97;;;;;;;;;;5135642;27;20219;-81
2022/05/30 14:25:21;;;;;;;3.93;2.90;;;;;;;;;;5135851;27;20302;-81
2022/05/30 14:27:49;;;;;;;2.97;2.77;;;;;;;;;;5135640;27;20314;-81
2022/05/30 14:30:25;;;;;;;4.70;2.73;;;;;;;;;;5136090;27;20622;-80
2022/05/30 14:33:07;;;;;;;6.07;2.97;;;;;;;;;;5135812;27;20602;-81
2022/05/30 14:35:34;;;;;;;7.30;3.30;;;;;;;;;;5135520;27;20679;-81
2022/05/30 14:38:03;;;;;;;6.45;2.78;;;;;;;;;;5135351;27;20191;-80
2022/05/30 14:40:37;;;;;;;3.90;3.00;;;;;;;;;;5135908;27;20195;-81
2022/05/30 14:43:22;;;;;;;4.63;2.80;;;;;;;;;;5135634;27;20243;-81
2022/05/30 14:46:04;;;;;;;3.20;2.90;;;;;;;;;;5133469;27;20183;-81
2022/05/30 14:48:31;;;;;;;3.20;2.90;;;;;;;;;;5123390;27;20750;-82
2022/05/30 14:51:03;;;;;;;4.25;3.13;;;;;;;;;;5135524;27;20191;-81
2022/05/30 14:53:32;;;;;;;4.17;3.77;;;;;;;;;;5126655;27;20205;-81
2022/05/30 14:56:02;;;;;;;3.70;3.40;;;;;;;;;;5114317;28;20195;-81
2022/05/30 14:58:38;;;;;;;5.77;3.10;;;;;;;;;;5134584;27;20536;-81
2022/05/30 15:01:05;;;;;;;3.43;3.00;;;;;;;;;;5132844;27;20585;-81
2022/05/30 15:06:21;;;;;;;3.23;2.47;;;;;;;;;;5114152;28;20235;-81
2022/05/30 15:08:48;;;;;;;3.73;3.43;;;;;;;;;;5114116;28;20646;-80
2022/05/30 15:11:19;;;;;;;4.03;3.00;;;;;;;;;;5114005;28;20199;-80
2022/05/30 15:13:48;;;;;;;5.40;2.87;;;;;;;;;;5114180;28;20188;-81
2022/05/30 15:16:15;;;;;;;3.23;2.60;;;;;;;;;;5113836;28;20256;-81
2022/05/30 15:18:42;;;;;;;3.47;3.13;;;;;;;;;;5113855;28;20206;-81
2022/05/30 15:21:10;;;;;;;3.47;2.37;;;;;;;;;;5114007;28;20199;-80
2022/05/30 15:23:37;;;;;;;2.83;2.63;;;;;;;;;;5113716;28;20199;-81
2022/05/30 15:26:04;;;;;;;6.10;2.97;;;;;;;;;;5112587;28;20691;-81
2022/05/30 15:28:35;;;;;;;3.90;3.10;;;;;;;;;;5113057;28;20215;-81
2022/05/30 15:31:02;;;;;;;4.90;3.10;;;;;;;;;;5113226;28;20215;-81